Terminal Aerodrome Forecast
Issued by NWS

Home | Current Version | Previous Version | Text Only | Print | Product List | Glossary On
Versions: 1 2 3 4 5 6 7 8 9 10 11 12 13 14 15 16 17 18 19 20 21 22 23 24 25 26 27 28 29 30 31 32
000
FTAK31 PANC 221735
TAFADL
TAF
PADL 221735Z 2218/2318 32005KT P6SM SCT050 WS020/32035KT
      TEMPO 2220/2222 32012G22KT
     FM222200 32012G22KT P6SM FEW250
     FM230700 32009KT P6SM FEW250=

USA.gov is the U.S. government's official web portal to all federal, state and local government web resources and services.